Time;durP1;ratioP1;P1;durP2;ratioP2;P2;SDS_P1;SDS_P2;PMS_P1;PMS_P2;Temp;Humidity;BMP_temperature;BMP_pressure;BME280_temperature;BME280_humidity;BME280_pressure;Samples;Min_cycle;Max_cycle;Signal;HPM_P1;HPM_P2
2022/07/30 00:00:09;;;;;;;2.25;1.38;;;25.70;43.40;;;29.60;28.50;101414.50;5114023;28;20055;-11
2022/07/30 00:02:35;;;;;;;2.25;1.33;;;25.70;44.00;;;29.61;28.35;101418.91;5114086;28;20603;-11
2022/07/30 00:05:01;;;;;;;1.17;1.05;;;25.70;43.40;;;29.60;28.42;101410.97;5114471;28;20047;-11
2022/07/30 00:07:27;;;;;;;1.85;1.35;;;25.70;43.40;;;29.60;28.38;101419.03;5113735;28;20558;-11
2022/07/30 00:09:53;;;;;;;2.65;1.50;;;25.70;43.40;;;29.54;28.49;101412.38;5113843;28;20051;-11
2022/07/30 00:12:19;;;;;;;1.50;1.40;;;25.70;43.40;;;29.58;28.46;101408.41;5113833;28;20051;-11
2022/07/30 00:14:44;;;;;;;1.33;1.13;;;25.70;43.40;;;29.55;28.25;101406.84;5113756;28;20075;-11
2022/07/30 00:17:10;;;;;;;2.35;1.35;;;25.70;43.40;;;29.59;28.54;101409.25;5113557;28;20044;-11
2022/07/30 00:19:36;;;;;;;2.00;1.50;;;25.70;43.40;;;29.55;28.29;101403.28;5113740;28;20044;-11
2022/07/30 00:22:02;;;;;;;1.85;1.42;;;25.70;43.40;;;29.58;28.40;101405.72;5113257;28;20042;-11
2022/07/30 00:24:28;;;;;;;2.47;1.55;;;25.70;43.40;;;29.57;28.41;101398.63;5113657;28;20043;-11
2022/07/30 00:26:54;;;;;;;2.28;1.40;;;25.70;43.40;;;29.58;28.36;101411.09;5113719;28;20135;-11
2022/07/30 00:29:19;;;;;;;1.20;1.10;;;25.70;43.40;;;29.59;28.29;101406.56;5113835;28;20043;-11
2022/07/30 00:31:45;;;;;;;1.52;1.30;;;25.70;43.40;;;29.55;28.23;101398.78;5113478;28;20522;-11
2022/07/30 00:34:12;;;;;;;1.60;1.27;;;25.70;43.40;;;29.54;28.48;101394.34;5113575;28;20127;-11
2022/07/30 00:36:39;;;;;;;2.22;1.52;;;25.70;43.40;;;29.53;28.44;101391.81;5113477;28;20055;-12
2022/07/30 00:39:06;;;;;;;1.90;1.55;;;25.70;43.50;;;29.53;28.58;101394.50;5113759;28;20066;-11
2022/07/30 00:41:32;;;;;;;1.42;1.20;;;25.70;43.40;;;29.55;28.52;101406.84;5113369;28;20497;-11
2022/07/30 00:43:57;;;;;;;1.50;1.40;;;25.70;43.40;;;29.54;28.50;101397.06;5113401;28;20060;-12
2022/07/30 00:46:23;;;;;;;1.63;1.42;;;25.70;43.40;;;29.55;28.31;101400.59;5113268;28;20083;-11
2022/07/30 00:48:50;;;;;;;1.20;1.10;;;25.70;43.40;;;29.55;28.37;101397.91;5094417;28;20138;-11
2022/07/30 00:51:16;;;;;;;1.40;1.30;;;25.70;43.40;;;29.55;28.56;101393.38;5112944;28;20481;-11
2022/07/30 00:53:41;;;;;;;2.50;1.90;;;25.70;43.40;;;29.53;28.33;101397.19;5093040;28;20048;-11
2022/07/30 00:56:08;;;;;;;1.45;1.35;;;25.60;43.30;;;29.52;28.27;101398.16;5112955;28;20412;-12
2022/07/30 00:58:33;;;;;;;1.42;1.20;;;25.70;43.40;;;29.54;28.47;101397.06;5113015;28;20091;-11
2022/07/30 01:00:59;;;;;;;1.98;1.30;;;25.60;43.40;;;29.54;28.52;101396.22;5113334;28;20055;-11
2022/07/30 01:03:25;;;;;;;1.38;1.25;;;25.60;43.40;;;29.52;28.41;101390.09;5113429;28;20180;-11
2022/07/30 01:05:51;;;;;;;1.40;1.30;;;25.60;43.40;;;29.54;28.52;101382.75;5112995;28;20481;-12
2022/07/30 01:08:17;;;;;;;1.60;1.40;;;25.60;43.40;;;29.51;28.40;101375.78;5112971;28;20089;-11
2022/07/30 01:10:43;;;;;;;1.75;1.20;;;25.70;43.40;;;29.54;28.06;101380.06;5112907;28;20036;-11
2022/07/30 01:13:09;;;;;;;1.40;1.30;;;25.60;43.30;;;29.56;28.56;101386.13;5113567;28;20092;-11
2022/07/30 01:15:36;;;;;;;2.42;1.50;;;25.60;43.40;;;29.52;28.42;101382.88;5112971;28;20493;-11
2022/07/30 01:18:07;;;;;;;1.92;1.15;;;25.60;43.40;;;29.48;28.57;101373.34;5075943;28;20040;-11
2022/07/30 01:20:37;;;;;;;;;;;25.60;43.40;;;29.62;28.26;101372.13;5078033;28;20389;-11
2022/07/30 01:23:30;;;;;;;2.10;1.50;;;25.60;43.40;;;29.60;28.30;101384.00;5112921;28;20364;-11
2022/07/30 01:26:10;;;;;;;2.38;1.10;;;25.70;43.40;;;29.53;28.42;101375.63;5094527;28;20887;-11
2022/07/30 01:28:40;;;;;;;1.30;1.20;;;25.60;43.40;;;29.52;28.20;101373.91;5092841;28;20081;-11
2022/07/30 01:31:07;;;;;;;1.20;1.10;;;25.60;43.40;;;29.56;28.30;101375.38;5093106;28;20044;-11
2022/07/30 01:33:39;;;;;;;1.48;1.38;;;25.60;43.40;;;29.53;28.10;101373.78;5080022;28;20073;-11
2022/07/30 01:36:10;;;;;;;1.73;1.45;;;25.60;43.40;;;29.52;28.44;101374.78;5094428;28;20478;-11
2022/07/30 01:38:36;;;;;;;2.27;1.33;;;25.60;43.40;;;29.55;28.34;101360.19;5095807;28;20048;-12
2022/07/30 01:41:04;;;;;;;1.30;1.20;;;25.60;43.40;;;29.51;28.54;101358.75;5116220;28;20110;-11
2022/07/30 01:43:31;;;;;;;1.20;1.10;;;25.60;43.40;;;29.53;28.25;101362.16;5097812;28;20143;-11
2022/07/30 01:45:59;;;;;;;1.45;1.23;;;25.60;43.40;;;29.53;28.41;101364.84;5080922;28;20441;-11
2022/07/30 01:48:26;;;;;;;1.23;1.10;;;25.60;43.40;;;29.53;28.32;101365.69;5096287;28;20108;-11
2022/07/30 01:50:56;;;;;;;1.33;1.23;;;25.60;43.40;;;29.53;28.55;101368.41;5080985;28;20127;-11
2022/07/30 01:53:26;;;;;;;2.35;1.42;;;25.60;43.40;;;29.48;28.19;101359.88;5098328;28;20050;-11
2022/07/30 01:55:54;;;;;;;1.60;1.20;;;25.60;43.40;;;29.50;28.56;101363.31;5097794;28;20397;-11
2022/07/30 01:58:26;;;;;;;1.73;1.10;;;25.60;43.40;;;29.47;28.58;101354.63;5080900;28;20139;-11
2022/07/30 02:00:57;;;;;;;2.38;1.45;;;25.60;43.40;;;29.52;28.58;101368.53;5098284;28;20093;-11
2022/07/30 02:03:25;;;;;;;2.00;1.20;;;25.60;43.40;;;29.51;28.33;101367.69;5097849;28;20047;-11
2022/07/30 02:06:08;;;;;;;1.55;1.30;;;25.60;43.40;;;29.47;28.39;101349.25;5115932;28;20046;-11
2022/07/30 02:08:38;;;;;;;1.73;1.20;;;25.60;43.40;;;29.47;28.45;101350.13;5115794;28;20074;-11
2022/07/30 02:12:27;;;;;;;1.08;0.98;;;25.60;43.40;;;29.45;28.59;101349.38;5080298;28;20488;-11
2022/07/30 02:14:22;;;;;;;1.60;1.23;;;25.60;43.40;;;29.50;28.49;101357.94;5115477;28;20491;-11
2022/07/30 02:16:55;;;;;;;2.00;1.20;;;25.60;43.40;;;29.51;28.48;101354.22;5115688;28;20048;-11
2022/07/30 02:19:33;;;;;;;1.67;1.35;;;25.60;43.40;;;29.50;28.28;101365.13;5081225;28;20059;-11
2022/07/30 02:22:08;;;;;;;1.48;1.05;;;25.60;44.00;;;29.46;28.34;101351.09;5116042;28;20058;-22
2022/07/30 02:24:36;;;;;;;1.17;1.00;;;25.60;43.40;;;29.50;28.35;101357.94;5097466;28;20039;-11
2022/07/30 02:27:14;;;;;;;1.60;1.30;;;25.60;43.50;;;29.44;28.36;101353.09;5115648;28;20051;-11
2022/07/30 02:29:43;;;;;;;1.88;1.25;;;25.60;43.40;;;29.49;28.44;101353.53;5080762;28;20073;-11
2022/07/30 02:32:15;;;;;;;1.63;1.30;;;25.60;43.40;;;29.45;28.34;101351.22;5097094;28;20044;-11
2022/07/30 02:34:44;;;;;;;1.70;1.05;;;25.60;43.40;;;29.47;28.35;101351.94;5080445;28;20456;-11
2022/07/30 02:37:13;;;;;;;1.50;1.27;;;25.60;43.40;;;29.46;28.34;101351.09;5080004;28;20048;-12
2022/07/30 02:39:42;;;;;;;1.67;1.50;;;25.60;43.50;;;29.49;28.56;101355.38;5079599;28;20066;-11
2022/07/30 02:42:11;;;;;;;1.33;1.10;;;25.60;43.50;;;29.49;28.59;101366.16;5097203;28;20048;-11
2022/07/30 02:44:39;;;;;;;1.30;1.20;;;25.60;43.50;;;29.45;28.54;101362.00;5096395;28;20074;-11
2022/07/30 02:47:06;;;;;;;1.35;1.20;;;25.60;43.50;;;29.48;28.57;101357.19;5095929;28;20050;-11
2022/07/30 02:49:52;;;;;;;1.63;1.25;;;25.60;43.50;;;29.47;28.34;101357.31;5115512;28;20115;-11
2022/07/30 02:52:19;;;;;;;1.38;1.20;;;25.60;43.50;;;29.47;28.42;101363.59;5080610;28;20078;-11
2022/07/30 02:54:49;;;;;;;1.48;1.13;;;25.60;43.50;;;29.48;28.41;101361.72;5080198;28;20082;-11
2022/07/30 02:57:16;;;;;;;1.35;1.25;;;25.60;43.50;;;29.49;28.60;101376.91;5079803;28;20054;-11
2022/07/30 02:59:44;;;;;;;1.20;1.10;;;25.60;43.50;;;29.47;28.45;101366.28;5080099;28;20079;-11
2022/07/30 03:02:12;;;;;;;1.17;1.13;;;25.60;43.50;;;29.47;28.33;101366.28;5079793;28;20043;-11
2022/07/30 03:04:39;;;;;;;1.98;1.52;;;25.60;43.50;;;29.48;28.36;101367.97;5096872;28;20450;-11
2022/07/30 03:07:07;;;;;;;1.75;1.10;;;25.60;43.50;;;29.47;28.56;101360.03;5096690;28;20047;-12
2022/07/30 03:09:36;;;;;;;1.63;1.25;;;25.60;43.50;;;29.45;28.48;101349.38;5097187;28;20100;-11
2022/07/30 03:12:02;;;;;;;1.20;1.10;;;25.60;43.50;;;29.44;28.55;101347.69;5060958;28;20098;-11
2022/07/30 03:14:29;;;;;;;2.60;1.38;;;25.60;43.50;;;29.47;28.51;101363.59;5096810;28;20052;-11
2022/07/30 03:16:57;;;;;;;1.73;1.10;;;25.60;43.50;;;29.42;28.33;101335.34;5096408;28;20043;-11
2022/07/30 03:19:29;;;;;;;1.10;1.00;;;25.60;43.50;;;29.43;28.62;101342.44;5062959;28;20040;-11
2022/07/30 03:21:56;;;;;;;1.08;1.02;;;25.60;43.50;;;29.44;28.29;101338.78;5114702;28;20043;-11
2022/07/30 03:24:24;;;;;;;1.70;1.20;;;25.50;43.40;;;29.44;28.47;101339.63;5114679;28;20170;-11
2022/07/30 03:26:53;;;;;;;1.40;1.30;;;25.60;43.50;;;29.46;28.54;101351.09;5079392;28;20396;-11
2022/07/30 03:29:21;;;;;;;1.40;1.30;;;25.60;43.50;;;29.41;28.45;101342.59;5079179;28;20052;-11
2022/07/30 03:31:48;;;;;;;1.20;1.10;;;25.60;43.50;;;29.46;28.35;101348.41;5096238;28;20139;-11
2022/07/30 03:34:16;;;;;;;1.15;1.00;;;25.50;43.40;;;29.46;28.56;101353.78;5096249;28;20081;-11
2022/07/30 03:36:42;;;;;;;1.45;1.25;;;25.60;43.50;;;29.42;28.47;101346.13;5096466;28;20040;-11
2022/07/30 03:39:10;;;;;;;1.05;0.95;;;25.60;43.50;;;29.46;28.35;101363.72;5094547;28;20044;-11
2022/07/30 03:41:37;;;;;;;2.70;1.00;;;25.50;43.50;;;29.43;28.64;101354.06;5096229;28;20051;-11
2022/07/30 03:44:05;;;;;;;1.73;1.40;;;25.60;43.50;;;29.45;28.44;101351.22;5095922;28;20100;-11
2022/07/30 03:46:35;;;;;;;1.25;1.10;;;25.60;43.50;;;29.44;28.39;101360.31;5079398;28;20046;-11
2022/07/30 03:49:04;;;;;;;1.50;1.27;;;25.60;43.50;;;29.43;28.47;101353.22;5078864;28;20083;-11
2022/07/30 03:51:35;;;;;;;1.63;1.13;;;25.60;43.50;;;29.43;28.51;101350.53;5095869;28;20074;-11
2022/07/30 03:54:08;;;;;;;1.85;1.33;;;25.60;43.50;;;29.43;28.34;101345.97;5079044;28;20036;-11
2022/07/30 03:56:42;;;;;;;1.38;1.23;;;25.50;43.50;;;29.42;28.55;101340.72;5114166;28;20052;-11
2022/07/30 03:59:33;;;;;;;1.10;1.10;;;25.60;43.50;;;29.47;28.44;101342.03;5103149;28;20179;-11
2022/07/30 04:02:01;;;;;;;1.15;1.02;;;25.50;43.50;;;29.46;28.59;101350.25;5114023;28;20519;-11
2022/07/30 04:04:50;;;;;;;1.30;1.20;;;25.60;43.50;;;29.48;28.51;101342.88;5114138;28;20427;-11
2022/07/30 04:07:16;;;;;;;1.08;0.98;;;25.50;43.50;;;29.45;28.31;101343.16;5094538;28;20056;-11
2022/07/30 04:09:42;;;;;;;1.83;1.25;;;25.50;43.50;;;29.43;28.39;101337.06;5095565;28;20469;-11
2022/07/30 04:12:24;;;;;;;1.50;1.10;;;25.60;43.50;;;29.42;28.29;101330.81;5096024;28;20147;-11
2022/07/30 04:14:52;;;;;;;1.15;1.05;;;25.60;43.50;;;29.43;28.53;101334.38;5095175;28;20554;-11
2022/07/30 04:17:28;;;;;;;1.45;1.30;;;25.60;43.50;;;29.42;28.50;101341.59;5094065;28;20097;-11
2022/07/30 04:20:06;;;;;;;1.50;1.10;;;25.60;43.50;;;29.45;28.45;101345.84;5078508;28;20055;-11
2022/07/30 04:22:35;;;;;;;1.20;1.10;;;25.60;43.50;;;29.46;28.44;101343.00;5095640;28;20050;-11
2022/07/30 04:25:05;;;;;;;0.93;0.90;;;25.60;43.50;;;29.43;28.62;101337.06;5095325;28;20048;-11
2022/07/30 04:27:31;;;;;;;1.42;1.10;;;25.60;43.50;;;29.45;28.42;101344.00;5095273;28;20585;-11
2022/07/30 04:29:58;;;;;;;1.85;1.40;;;25.60;43.50;;;29.46;28.58;101348.41;5076378;28;20131;-11
2022/07/30 04:32:25;;;;;;;1.67;1.15;;;25.60;43.50;;;29.48;28.47;101354.50;5095119;28;20054;-11
2022/07/30 04:34:57;;;;;;;1.15;1.05;;;25.60;43.50;;;29.46;28.42;101351.09;5096228;28;20504;-11
2022/07/30 04:37:43;;;;;;;1.73;1.30;;;25.60;43.50;;;29.48;28.34;101354.50;5112630;28;20043;-11
2022/07/30 04:40:09;;;;;;;2.60;1.25;;;25.60;43.50;;;29.49;28.51;101358.91;5095160;28;20055;-11
2022/07/30 04:42:35;;;;;;;1.60;1.20;;;25.60;43.50;;;29.47;28.35;101363.59;5095085;28;20089;-11
2022/07/30 04:45:06;;;;;;;1.30;1.20;;;25.60;43.50;;;29.48;28.58;101361.72;5095059;28;20066;-11
2022/07/30 04:47:47;;;;;;;1.42;1.33;;;25.60;43.50;;;29.45;28.22;101357.47;5091658;28;20502;-12
2022/07/30 04:50:35;;;;;;;1.30;1.20;;;25.60;43.50;;;29.49;28.41;101363.44;5094960;28;20476;-11
2022/07/30 04:53:02;;;;;;;1.48;1.17;;;25.60;43.50;;;29.45;28.43;101362.00;5093107;28;20044;-11
2022/07/30 04:55:34;;;;;;;1.17;1.08;;;25.60;43.50;;;29.47;28.37;101368.97;5095382;28;20063;-11
2022/07/30 04:58:01;;;;;;;1.10;1.00;;;25.60;43.50;;;29.46;28.65;101366.41;5094777;28;20075;-11
2022/07/30 05:00:30;;;;;;;1.27;1.00;;;25.60;43.60;;;29.46;28.36;101369.13;5094832;28;20059;-11
2022/07/30 05:02:57;;;;;;;1.77;1.08;;;25.60;43.60;;;29.44;28.50;101371.94;5077863;28;20056;-11
2022/07/30 05:05:24;;;;;;;1.27;1.17;;;25.60;43.60;;;29.43;28.44;101366.69;5095331;28;20051;-11
2022/07/30 05:07:51;;;;;;;1.23;1.02;;;25.60;43.60;;;29.47;28.61;101373.50;5094547;28;20040;-12
2022/07/30 05:10:18;;;;;;;0.90;0.90;;;25.50;43.50;;;29.46;28.41;101367.25;5095349;28;20497;-11
2022/07/30 05:12:43;;;;;;;1.35;1.25;;;25.60;43.60;;;29.43;28.41;101361.31;5113319;28;20043;-11
2022/07/30 05:15:10;;;;;;;1.42;1.33;;;25.60;43.60;;;29.45;28.58;101370.94;5112890;28;20046;-11
2022/07/30 05:17:37;;;;;;;1.10;1.00;;;25.60;43.60;;;29.43;28.48;101369.38;5077739;28;20050;-11
2022/07/30 05:20:06;;;;;;;1.30;1.20;;;25.60;43.60;;;29.43;28.54;101369.38;5092925;28;20091;-11
2022/07/30 05:22:48;;;;;;;1.00;1.00;;;25.60;43.60;;;29.45;28.65;101376.31;5095260;28;20035;-11
2022/07/30 05:25:14;;;;;;;1.10;1.00;;;25.50;43.50;;;29.43;28.57;101374.78;5094903;28;20469;-11
2022/07/30 05:27:39;;;;;;;1.77;1.35;;;25.50;43.50;;;29.46;28.49;101377.19;5094271;28;20428;-11
2022/07/30 05:30:07;;;;;;;2.38;1.35;;;25.60;43.60;;;29.43;28.44;101380.16;5094359;28;20138;-11
2022/07/30 05:32:40;;;;;;;1.20;1.00;;;25.60;43.60;;;29.48;28.60;101373.34;5093311;28;20550;-11
2022/07/30 05:35:06;;;;;;;1.00;1.00;;;25.60;43.60;;;29.44;28.69;101373.78;5094997;28;20044;-11
2022/07/30 05:37:33;;;;;;;1.08;0.98;;;25.60;43.60;;;29.46;28.45;101377.19;5094670;28;20404;-11
2022/07/30 05:39:59;;;;;;;1.25;1.00;;;25.60;43.60;;;29.43;28.44;101372.91;5093737;28;20036;-11
2022/07/30 05:42:40;;;;;;;1.23;1.08;;;25.60;43.60;;;29.45;28.48;101375.47;5113246;28;20400;-11
2022/07/30 05:45:07;;;;;;;2.10;1.10;;;25.60;43.60;;;29.44;28.55;101369.25;5094288;28;20052;-11
2022/07/30 05:47:33;;;;;;;1.27;1.17;;;25.60;43.60;;;29.45;28.48;101370.94;5094084;28;20045;-11
2022/07/30 05:49:59;;;;;;;1.33;1.20;;;25.60;43.60;;;29.44;28.43;101376.50;5093366;28;20126;-11
2022/07/30 05:52:25;;;;;;;1.70;1.38;;;25.60;43.50;;;29.48;28.40;101378.75;5094225;28;20044;-11
2022/07/30 05:54:56;;;;;;;1.73;1.30;;;25.60;43.60;;;29.49;28.57;101379.63;5094780;28;20142;-12
2022/07/30 05:57:49;;;;;;;1.67;1.20;;;25.60;43.60;;;29.46;28.35;101382.59;5094586;28;20130;-12
2022/07/30 06:00:15;;;;;;;1.15;1.05;;;25.60;43.50;;;29.47;28.50;101390.53;5112780;28;20430;-11
2022/07/30 06:02:48;;;;;;;0.90;0.90;;;25.60;43.60;;;29.48;28.40;101384.13;5094636;28;20103;-11
2022/07/30 06:05:32;;;;;;;1.20;1.08;;;25.60;43.50;;;29.49;28.36;101383.16;5112266;28;20113;-13
2022/07/30 06:08:00;;;;;;;1.13;1.02;;;25.60;43.50;;;29.49;28.60;101382.31;5092972;28;20435;-11
2022/07/30 06:10:28;;;;;;;1.35;1.25;;;25.60;43.50;;;29.49;28.38;101388.53;5094273;28;20511;-11
2022/07/30 06:12:54;;;;;;;1.83;1.38;;;25.60;43.50;;;29.44;28.38;101376.50;5112321;28;20397;-11
2022/07/30 06:15:20;;;;;;;1.77;1.20;;;25.60;43.50;;;29.49;28.53;101390.41;5076951;28;20105;-11
2022/07/30 06:17:47;;;;;;;1.30;1.20;;;25.60;43.50;;;29.46;28.60;101380.72;5093049;28;20048;-11
2022/07/30 06:20:18;;;;;;;1.52;1.30;;;25.60;43.50;;;29.52;28.51;101387.41;5095756;28;20082;-11
2022/07/30 06:23:03;;;;;;;0.98;0.98;;;25.60;43.50;;;29.49;28.38;101377.75;5097368;28;20058;-11
2022/07/30 06:25:40;;;;;;;1.17;1.08;;;25.60;43.40;;;29.49;28.32;101383.16;5097368;28;20135;-11
2022/07/30 06:28:06;;;;;;;1.27;1.10;;;25.60;43.40;;;29.51;28.48;101391.94;5115633;28;20047;-12
2022/07/30 06:30:32;;;;;;;1.30;1.20;;;25.70;43.50;;;29.52;28.54;101396.34;5097639;28;20388;-11
2022/07/30 06:32:58;;;;;;;1.40;1.30;;;25.70;44.00;;;29.50;28.42;101398.34;5097186;28;20044;-13
2022/07/30 06:35:24;;;;;;;1.42;1.30;;;25.60;43.40;;;29.51;28.35;101394.63;5096989;28;20137;-11
2022/07/30 06:37:50;;;;;;;1.17;1.05;;;25.60;43.40;;;29.50;28.36;101394.78;5096222;28;20544;-11
2022/07/30 06:40:16;;;;;;;1.10;1.00;;;25.70;43.40;;;29.55;28.32;101398.78;5095752;28;20135;-11
2022/07/30 06:43:01;;;;;;;1.40;1.13;;;25.70;43.40;;;29.56;28.27;101403.16;5115483;28;20066;-11
2022/07/30 06:45:42;;;;;;;1.00;1.00;;;25.70;43.40;;;29.54;28.56;101399.75;5097718;28;20350;-11
2022/07/30 06:48:36;;;;;;;1.85;1.08;;;25.70;43.40;;;29.59;28.38;101398.47;5110901;28;20048;-11
2022/07/30 06:51:04;;;;;;;1.40;1.20;;;25.70;43.40;;;29.59;28.27;101402.03;5095536;28;20044;-11
2022/07/30 06:53:30;;;;;;;1.30;1.08;;;25.70;43.40;;;29.54;28.52;101396.22;5095426;28;20055;-11
2022/07/30 06:56:12;;;;;;;2.17;1.17;;;25.70;43.40;;;29.56;28.32;101402.31;5115127;28;20130;-11
2022/07/30 06:58:46;;;;;;;0.82;0.82;;;25.70;43.40;;;29.58;28.50;101404.88;5094688;28;20048;-11
2022/07/30 07:01:32;;;;;;;0.82;0.80;;;25.70;43.40;;;29.53;28.42;101394.50;5115669;28;20062;-11
2022/07/30 07:03:58;;;;;;;1.00;1.00;;;25.70;43.40;;;29.59;28.50;101407.44;5097182;28;20373;-11
2022/07/30 07:06:24;;;;;;;1.30;1.20;;;25.70;43.40;;;29.59;28.45;101410.13;5096484;28;20047;-11
2022/07/30 07:08:50;;;;;;;2.10;0.85;;;25.70;43.30;;;29.60;28.29;101409.09;5114595;28;20051;-11
2022/07/30 07:11:21;;;;;;;1.83;1.23;;;25.70;43.30;;;29.58;28.54;101403.00;5095528;28;20470;-11
2022/07/30 07:13:52;;;;;;;1.20;1.10;;;25.70;43.30;;;29.61;28.42;101404.59;5078733;28;20048;-11
2022/07/30 07:16:30;;;;;;;0.90;0.90;;;25.70;43.30;;;29.60;28.32;101403.72;5096205;28;20046;-11
2022/07/30 07:18:59;;;;;;;1.17;1.08;;;25.70;43.30;;;29.60;28.29;101398.34;5096187;28;20507;-11
2022/07/30 07:21:25;;;;;;;1.05;0.95;;;25.80;43.30;;;29.64;28.21;101401.63;5096338;28;20044;-11
2022/07/30 07:23:54;;;;;;;1.40;1.02;;;25.80;43.30;;;29.64;28.49;101398.94;5095751;28;20054;-11
2022/07/30 07:26:50;;;;;;;1.17;1.10;;;25.80;43.30;;;29.64;28.18;101399.78;5096487;28;20473;-11
2022/07/30 07:29:17;;;;;;;1.05;1.00;;;25.80;43.30;;;29.65;28.23;101403.31;5079274;28;20090;-11
2022/07/30 07:31:43;;;;;;;1.08;0.98;;;25.80;43.20;;;29.64;28.25;101396.22;5094535;28;20051;-11
2022/07/30 07:34:10;;;;;;;1.10;1.00;;;25.80;43.20;;;29.69;28.16;101400.19;5094541;28;20044;-11
2022/07/30 07:36:36;;;;;;;1.05;0.93;;;25.80;43.20;;;29.65;28.27;101395.22;5096082;28;20399;-11
2022/07/30 07:39:08;;;;;;;1.73;1.35;;;25.80;43.20;;;29.72;28.26;101393.66;5095961;28;20058;-11
2022/07/30 07:41:36;;;;;;;1.27;1.10;;;25.80;43.10;;;29.71;28.25;101391.97;5096040;28;20156;-11
2022/07/30 07:44:04;;;;;;;1.42;1.30;;;25.90;43.20;;;29.69;28.30;101380.50;5096016;28;20411;-11
2022/07/30 07:46:33;;;;;;;1.92;1.20;;;25.90;43.20;;;29.77;28.39;101399.53;5096245;28;20036;-11
2022/07/30 07:49:01;;;;;;;1.40;1.23;;;25.90;43.10;;;29.76;28.27;101405.88;5095764;28;20097;-11
2022/07/30 07:51:35;;;;;;;0.95;0.93;;;25.90;43.10;;;29.79;28.10;101402.06;5096147;28;20059;-11
2022/07/30 07:54:02;;;;;;;1.15;1.00;;;25.90;43.10;;;29.74;28.17;101395.25;5096442;28;20040;-11
2022/07/30 07:56:28;;;;;;;1.38;1.20;;;25.90;43.10;;;29.78;28.31;101400.38;5114063;28;20069;-11
2022/07/30 07:58:54;;;;;;;0.80;0.80;;;26.00;43.10;;;29.82;28.18;101402.66;5095314;28;20132;-11
2022/07/30 08:01:21;;;;;;;1.20;1.10;;;26.00;43.00;;;29.84;28.06;101408.75;5095092;28;20059;-11
2022/07/30 08:04:22;;;;;;;;;;;26.00;43.00;;;30.01;27.90;101406.38;5012157;28;20048;-11
2022/07/30 08:07:06;;;;;;;1.10;1.00;;;26.10;43.00;;;29.95;28.00;101410.47;5105216;28;21258;-11
2022/07/30 08:09:51;;;;;;;2.13;1.38;;;26.10;42.80;;;29.97;27.85;101405.81;5113625;28;20151;-11
2022/07/30 08:12:36;;;;;;;1.38;1.20;;;26.30;42.80;;;29.99;27.92;101398.41;5114265;28;20164;-11
2022/07/30 08:15:20;;;;;;;1.10;1.00;;;26.30;42.60;;;30.05;27.98;101400.53;5114069;28;20058;-11
2022/07/30 08:17:58;;;;;;;1.20;1.10;;;26.40;42.50;;;30.16;27.90;101406.78;5113751;28;20047;-11
2022/07/30 08:20:42;;;;;;;0.93;0.90;;;26.50;42.40;;;30.20;27.83;101405.50;5113765;28;20159;-11
2022/07/30 08:23:10;;;;;;;1.00;0.90;;;26.60;42.30;;;30.25;27.74;101406.75;5095295;28;20052;-11
2022/07/30 08:25:36;;;;;;;1.38;1.10;;;26.60;42.30;;;30.27;27.60;101403.91;5095885;28;20515;-11
2022/07/30 08:28:02;;;;;;;1.58;1.05;;;26.60;42.20;;;30.30;27.68;101398.22;5093462;28;20052;-11
2022/07/30 08:30:30;;;;;;;1.17;1.10;;;26.60;42.10;;;30.38;27.43;101403.78;5095131;28;20047;-11
2022/07/30 08:32:56;;;;;;;1.38;1.27;;;26.70;42.20;;;30.39;27.61;101405.50;5095492;28;20056;-11
2022/07/30 08:35:22;;;;;;;0.88;0.88;;;26.70;42.10;;;30.46;27.54;101414.72;5095061;28;20423;-12
2022/07/30 08:37:48;;;;;;;1.25;1.15;;;26.70;42.00;;;30.44;27.40;101405.09;5113522;28;20049;-11
2022/07/30 08:40:19;;;;;;;1.17;1.10;;;26.70;42.00;;;30.51;27.37;101413.44;5095363;28;20052;-11
2022/07/30 08:42:52;;;;;;;1.23;1.13;;;26.70;41.90;;;30.53;27.28;101414.16;5094275;28;20044;-11
2022/07/30 08:45:19;;;;;;;1.40;1.15;;;26.70;41.90;;;30.50;27.37;101415.28;5095279;28;20065;-11
2022/07/30 08:47:46;;;;;;;1.15;0.90;;;26.70;42.00;;;30.54;27.41;101421.22;5078028;28;20051;-11
2022/07/30 08:50:28;;;;;;;1.15;1.05;;;26.70;42.00;;;30.53;27.30;101409.59;5113634;28;20047;-11
2022/07/30 08:53:31;;;;;;;1.20;1.10;;;26.80;42.00;;;30.58;27.59;101422.66;5113017;28;20144;-11
2022/07/30 08:55:56;;;;;;;1.15;1.00;;;26.80;41.90;;;30.58;27.32;101423.50;5094779;28;20134;-11
2022/07/30 08:58:33;;;;;;;1.27;1.15;;;26.80;41.90;;;30.59;27.47;101421.63;5113316;28;20130;-11
2022/07/30 09:01:00;;;;;;;1.30;0.95;;;26.80;42.00;;;30.56;27.07;101413.88;5078594;28;20427;-11
2022/07/30 09:03:28;;;;;;;1.27;0.93;;;26.80;41.90;;;30.62;27.24;101424.06;5095086;28;20449;-11
2022/07/30 09:05:57;;;;;;;1.10;1.00;;;26.80;41.90;;;30.57;27.20;101424.50;5094763;28;20489;-11
2022/07/30 09:08:23;;;;;;;1.15;1.05;;;26.80;41.90;;;30.61;27.21;101423.22;5112935;28;20100;-11
2022/07/30 09:10:49;;;;;;;1.45;1.02;;;26.80;41.90;;;30.58;27.22;101423.50;5094732;28;20496;-11
2022/07/30 09:13:33;;;;;;;1.17;1.08;;;26.80;41.90;;;30.58;27.07;101420.81;5094740;28;20059;-11
2022/07/30 09:16:00;;;;;;;1.20;1.10;;;26.80;41.90;;;30.61;27.17;101431.31;5094570;28;20047;-11
2022/07/30 09:18:38;;;;;;;1.75;1.27;;;26.80;41.90;;;30.62;27.22;101434.84;5093615;28;20072;-11
2022/07/30 09:21:24;;;;;;;1.13;1.00;;;26.70;42.40;;;30.61;27.33;101438.56;5095111;28;20117;-11
2022/07/30 09:24:16;;;;;;;1.30;1.20;;;26.70;41.90;;;30.64;27.15;101439.13;5094757;28;20078;-11
2022/07/30 09:27:04;;;;;;;1.10;1.00;;;26.70;41.90;;;30.58;26.85;101425.34;5112932;28;20112;-11
2022/07/30 09:29:58;;;;;;;0.90;0.90;;;26.70;41.90;;;30.56;27.28;101430.91;5112796;28;20396;-11
2022/07/30 09:32:53;;;;;;;1.00;1.00;;;26.70;41.90;;;30.55;27.22;101429.19;5112781;28;20104;-11
2022/07/30 09:35:38;;;;;;;1.00;1.00;;;26.70;41.90;;;30.58;27.11;101431.59;5113347;28;20066;-11
2022/07/30 09:38:11;;;;;;;1.10;1.00;;;26.70;41.90;;;30.57;27.18;101437.13;5113048;28;20388;-11
2022/07/30 09:41:00;;;;;;;1.20;1.10;;;26.70;41.90;;;30.62;27.12;101440.25;5112414;28;20040;-11
2022/07/30 09:43:49;;;;;;;1.10;1.02;;;26.80;41.90;;;30.57;27.18;101434.44;5094015;28;20439;-11
2022/07/30 09:46:49;;;;;;;1.45;1.35;;;26.70;41.90;;;30.58;27.31;101428.06;5093523;28;20043;-11
2022/07/30 09:49:26;;;;;;;0.80;0.80;;;26.70;41.90;;;30.64;27.20;101449.06;5094214;28;20048;-11
2022/07/30 09:51:54;;;;;;;1.58;1.20;;;26.80;41.90;;;30.64;27.21;101446.38;5077757;28;20071;-11
2022/07/30 09:54:20;;;;;;;1.45;1.10;;;26.70;41.90;;;30.60;27.11;101436.84;5096190;28;20047;-11
2022/07/30 09:56:46;;;;;;;2.25;0.90;;;26.80;41.90;;;30.64;27.14;101447.22;5116084;28;20138;-11
2022/07/30 09:59:29;;;;;;;1.15;1.02;;;26.80;41.90;;;30.56;27.12;101433.59;5096173;28;20136;-11
2022/07/30 10:01:57;;;;;;;0.82;0.82;;;26.70;41.90;;;30.61;27.19;101449.38;5080804;28;20051;-11
2022/07/30 10:04:46;;;;;;;1.02;1.00;;;26.80;41.90;;;30.61;27.25;101447.50;5077304;28;20047;-11
2022/07/30 10:07:20;;;;;;;1.00;0.90;;;26.70;41.90;;;30.58;27.24;101436.16;5081024;28;20059;-12
2022/07/30 10:09:50;;;;;;;1.10;1.00;;;26.70;41.90;;;30.63;27.10;101444.66;5116270;28;20426;-11
2022/07/30 10:12:20;;;;;;;1.05;1.00;;;26.70;41.90;;;30.61;27.15;101446.66;5081030;28;20634;-11
2022/07/30 10:14:52;;;;;;;1.13;1.00;;;26.70;41.90;;;30.65;27.37;101454.31;5096932;28;20051;-11
2022/07/30 10:17:21;;;;;;;1.13;1.02;;;26.70;41.90;;;30.60;27.14;101439.56;5079576;28;20697;-11
2022/07/30 10:20:08;;;;;;;1.50;1.02;;;26.70;41.90;;;30.66;26.96;101447.91;5098311;28;20059;-11
2022/07/30 10:22:54;;;;;;;1.15;0.93;;;26.70;41.90;;;30.63;27.20;101450.06;5113018;28;20048;-11
2022/07/30 10:25:25;;;;;;;1.05;0.98;;;26.80;41.90;;;30.64;27.15;101444.53;5115900;28;20112;-11
2022/07/30 10:28:02;;;;;;;1.20;1.02;;;26.80;41.90;;;30.61;27.16;101455.59;5115507;28;20051;-11
2022/07/30 10:30:30;;;;;;;1.27;1.10;;;26.80;41.90;;;30.64;27.04;101457.16;5097230;28;20043;-11